Terminal Aerodrome Forecast
Issued by NWS

Home | Current Version | Previous Version | Text Only | Print | Product List | Glossary On
Versions: 1 2 3 4 5 6 7 8 9 10 11 12 13 14 15 16 17 18 19 20 21 22 23 24 25 26 27 28 29
000
FTUS44 KBMX 270522 CCA
TAFEET
TAF COR
KEET 270522Z 2706/2806 15003KT P6SM OVC007
     FM271000 00000KT 3SM BR BKN003
     FM271500 14005KT P6SM BKN015 BKN110
     FM271900 17007KT P6SM VCTS BKN040CB
     FM280100 VRB03KT P6SM BKN120=

USA.gov is the U.S. government's official web portal to all federal, state and local government web resources and services.